sensor_id;sensor_type;location;lat;lon;timestamp;P1;durP1;ratioP1;P2;durP2;ratioP2
75628;SDS011;64213;46.452;16.994;2023-02-04T00:00:36;5.00;;;0.80;;
75628;SDS011;64213;46.452;16.994;2023-02-04T00:03:39;4.75;;;0.90;;
75628;SDS011;64213;46.452;16.994;2023-02-04T00:06:41;5.53;;;1.07;;
75628;SDS011;64213;46.452;16.994;2023-02-04T00:09:44;4.97;;;0.70;;
75628;SDS011;64213;46.452;16.994;2023-02-04T00:12:50;3.87;;;0.70;;
75628;SDS011;64213;46.452;16.994;2023-02-04T00:15:52;4.50;;;0.73;;
75628;SDS011;64213;46.452;16.994;2023-02-04T00:18:54;4.68;;;0.80;;
75628;SDS011;64213;46.452;16.994;2023-02-04T00:21:57;5.47;;;0.83;;
75628;SDS011;64213;46.452;16.994;2023-02-04T00:24:59;5.77;;;1.20;;
75628;SDS011;64213;46.452;16.994;2023-02-04T00:28:01;4.87;;;0.90;;
75628;SDS011;64213;46.452;16.994;2023-02-04T00:31:05;5.18;;;0.85;;
75628;SDS011;64213;46.452;16.994;2023-02-04T00:34:09;5.22;;;1.10;;
75628;SDS011;64213;46.452;16.994;2023-02-04T00:37:11;5.30;;;0.97;;
75628;SDS011;64213;46.452;16.994;2023-02-04T00:40:13;7.73;;;0.90;;
75628;SDS011;64213;46.452;16.994;2023-02-04T00:43:15;5.87;;;1.02;;
75628;SDS011;64213;46.452;16.994;2023-02-04T00:46:17;5.70;;;1.15;;
75628;SDS011;64213;46.452;16.994;2023-02-04T00:49:19;5.70;;;0.90;;
75628;SDS011;64213;46.452;16.994;2023-02-04T00:52:22;6.93;;;1.00;;
75628;SDS011;64213;46.452;16.994;2023-02-04T00:55:24;4.20;;;0.80;;
75628;SDS011;64213;46.452;16.994;2023-02-04T00:58:26;5.55;;;1.02;;
75628;SDS011;64213;46.452;16.994;2023-02-04T01:01:28;5.87;;;0.90;;
75628;SDS011;64213;46.452;16.994;2023-02-04T01:04:30;5.22;;;0.80;;
75628;SDS011;64213;46.452;16.994;2023-02-04T01:07:33;6.80;;;1.23;;
75628;SDS011;64213;46.452;16.994;2023-02-04T01:10:35;7.03;;;1.73;;
75628;SDS011;64213;46.452;16.994;2023-02-04T01:13:38;7.55;;;1.58;;
75628;SDS011;64213;46.452;16.994;2023-02-04T01:16:41;6.62;;;1.65;;
75628;SDS011;64213;46.452;16.994;2023-02-04T01:19:43;6.45;;;1.60;;
75628;SDS011;64213;46.452;16.994;2023-02-04T01:22:45;7.33;;;1.93;;
75628;SDS011;64213;46.452;16.994;2023-02-04T01:25:47;8.70;;;1.97;;
75628;SDS011;64213;46.452;16.994;2023-02-04T01:28:50;7.20;;;2.03;;
75628;SDS011;64213;46.452;16.994;2023-02-04T01:31:52;8.43;;;2.00;;
75628;SDS011;64213;46.452;16.994;2023-02-04T01:34:54;6.90;;;1.80;;
75628;SDS011;64213;46.452;16.994;2023-02-04T01:37:58;7.57;;;2.03;;
75628;SDS011;64213;46.452;16.994;2023-02-04T01:41:01;7.43;;;2.00;;
75628;SDS011;64213;46.452;16.994;2023-02-04T01:44:04;7.03;;;1.70;;
75628;SDS011;64213;46.452;16.994;2023-02-04T01:47:07;6.72;;;1.50;;
75628;SDS011;64213;46.452;16.994;2023-02-04T01:50:11;6.45;;;1.55;;
75628;SDS011;64213;46.452;16.994;2023-02-04T01:53:17;7.80;;;1.57;;
75628;SDS011;64213;46.452;16.994;2023-02-04T01:56:24;6.00;;;1.20;;
75628;SDS011;64213;46.452;16.994;2023-02-04T01:59:27;7.47;;;1.90;;
75628;SDS011;64213;46.452;16.994;2023-02-04T02:02:36;7.43;;;2.00;;
75628;SDS011;64213;46.452;16.994;2023-02-04T02:05:48;6.75;;;1.40;;
75628;SDS011;64213;46.452;16.994;2023-02-04T02:08:53;6.77;;;1.33;;
75628;SDS011;64213;46.452;16.994;2023-02-04T02:11:56;6.60;;;1.53;;
75628;SDS011;64213;46.452;16.994;2023-02-04T02:14:59;6.62;;;1.30;;
75628;SDS011;64213;46.452;16.994;2023-02-04T02:18:02;6.75;;;1.45;;
75628;SDS011;64213;46.452;16.994;2023-02-04T02:21:05;8.93;;;1.60;;
75628;SDS011;64213;46.452;16.994;2023-02-04T02:24:31;7.37;;;1.70;;
75628;SDS011;64213;46.452;16.994;2023-02-04T02:27:35;8.20;;;1.47;;
75628;SDS011;64213;46.452;16.994;2023-02-04T02:30:38;7.20;;;1.62;;
75628;SDS011;64213;46.452;16.994;2023-02-04T02:33:41;5.50;;;1.23;;
75628;SDS011;64213;46.452;16.994;2023-02-04T02:36:43;6.60;;;1.40;;
75628;SDS011;64213;46.452;16.994;2023-02-04T02:39:45;7.10;;;1.57;;
75628;SDS011;64213;46.452;16.994;2023-02-04T02:42:48;6.80;;;1.30;;
75628;SDS011;64213;46.452;16.994;2023-02-04T02:45:54;7.47;;;1.37;;
75628;SDS011;64213;46.452;16.994;2023-02-04T02:48:59;8.85;;;2.78;;
75628;SDS011;64213;46.452;16.994;2023-02-04T02:52:02;7.93;;;1.95;;
75628;SDS011;64213;46.452;16.994;2023-02-04T02:55:04;7.27;;;1.67;;
75628;SDS011;64213;46.452;16.994;2023-02-04T03:01:30;6.12;;;1.33;;
75628;SDS011;64213;46.452;16.994;2023-02-04T03:04:33;8.60;;;2.10;;
75628;SDS011;64213;46.452;16.994;2023-02-04T03:07:40;6.90;;;1.52;;
75628;SDS011;64213;46.452;16.994;2023-02-04T03:10:43;7.50;;;1.97;;
75628;SDS011;64213;46.452;16.994;2023-02-04T03:13:46;9.83;;;3.77;;
75628;SDS011;64213;46.452;16.994;2023-02-04T03:16:49;16.92;;;6.90;;
75628;SDS011;64213;46.452;16.994;2023-02-04T03:19:53;20.90;;;8.13;;
75628;SDS011;64213;46.452;16.994;2023-02-04T03:22:56;13.15;;;4.72;;
75628;SDS011;64213;46.452;16.994;2023-02-04T03:25:59;10.27;;;3.30;;
75628;SDS011;64213;46.452;16.994;2023-02-04T03:29:02;16.23;;;6.23;;
75628;SDS011;64213;46.452;16.994;2023-02-04T03:32:08;15.90;;;5.57;;
75628;SDS011;64213;46.452;16.994;2023-02-04T03:35:10;12.77;;;5.43;;
75628;SDS011;64213;46.452;16.994;2023-02-04T03:38:12;12.30;;;4.90;;
75628;SDS011;64213;46.452;16.994;2023-02-04T03:41:14;11.63;;;4.73;;
75628;SDS011;64213;46.452;16.994;2023-02-04T03:44:16;14.73;;;5.70;;
75628;SDS011;64213;46.452;16.994;2023-02-04T03:47:19;17.08;;;7.45;;
75628;SDS011;64213;46.452;16.994;2023-02-04T03:50:21;14.07;;;5.53;;
75628;SDS011;64213;46.452;16.994;2023-02-04T03:53:24;12.30;;;4.93;;
75628;SDS011;64213;46.452;16.994;2023-02-04T03:56:26;14.33;;;4.60;;
75628;SDS011;64213;46.452;16.994;2023-02-04T03:59:28;12.17;;;4.80;;
75628;SDS011;64213;46.452;16.994;2023-02-04T04:02:30;11.60;;;3.90;;
75628;SDS011;64213;46.452;16.994;2023-02-04T04:05:32;10.45;;;3.33;;
75628;SDS011;64213;46.452;16.994;2023-02-04T04:08:35;11.27;;;3.85;;
75628;SDS011;64213;46.452;16.994;2023-02-04T04:11:38;12.57;;;4.80;;
75628;SDS011;64213;46.452;16.994;2023-02-04T04:14:40;8.20;;;2.33;;
75628;SDS011;64213;46.452;16.994;2023-02-04T04:17:42;15.02;;;4.62;;
75628;SDS011;64213;46.452;16.994;2023-02-04T04:20:44;14.23;;;4.47;;
75628;SDS011;64213;46.452;16.994;2023-02-04T04:23:47;13.65;;;4.87;;
75628;SDS011;64213;46.452;16.994;2023-02-04T04:26:49;14.47;;;4.90;;
75628;SDS011;64213;46.452;16.994;2023-02-04T04:29:51;11.33;;;4.93;;
75628;SDS011;64213;46.452;16.994;2023-02-04T04:32:53;13.75;;;4.32;;
75628;SDS011;64213;46.452;16.994;2023-02-04T04:35:55;14.70;;;5.20;;
75628;SDS011;64213;46.452;16.994;2023-02-04T04:38:57;13.27;;;4.80;;
75628;SDS011;64213;46.452;16.994;2023-02-04T04:42:00;14.60;;;5.53;;
75628;SDS011;64213;46.452;16.994;2023-02-04T04:45:04;14.97;;;5.47;;
75628;SDS011;64213;46.452;16.994;2023-02-04T04:48:08;15.65;;;5.20;;
75628;SDS011;64213;46.452;16.994;2023-02-04T04:51:12;14.45;;;5.78;;
75628;SDS011;64213;46.452;16.994;2023-02-04T04:54:14;15.30;;;5.93;;
75628;SDS011;64213;46.452;16.994;2023-02-04T04:57:17;16.53;;;6.30;;
75628;SDS011;64213;46.452;16.994;2023-02-04T05:00:19;15.20;;;6.33;;
75628;SDS011;64213;46.452;16.994;2023-02-04T05:03:22;18.55;;;6.47;;
75628;SDS011;64213;46.452;16.994;2023-02-04T05:06:25;15.80;;;6.07;;
75628;SDS011;64213;46.452;16.994;2023-02-04T05:09:28;15.27;;;5.85;;
75628;SDS011;64213;46.452;16.994;2023-02-04T05:12:30;16.73;;;6.23;;
75628;SDS011;64213;46.452;16.994;2023-02-04T05:15:33;14.80;;;5.40;;
75628;SDS011;64213;46.452;16.994;2023-02-04T05:18:35;13.13;;;4.82;;
75628;SDS011;64213;46.452;16.994;2023-02-04T05:21:38;14.90;;;5.95;;
75628;SDS011;64213;46.452;16.994;2023-02-04T05:24:41;15.95;;;5.40;;
75628;SDS011;64213;46.452;16.994;2023-02-04T05:27:43;11.37;;;3.50;;
75628;SDS011;64213;46.452;16.994;2023-02-04T05:30:46;6.80;;;1.50;;
75628;SDS011;64213;46.452;16.994;2023-02-04T05:33:48;5.95;;;1.00;;
75628;SDS011;64213;46.452;16.994;2023-02-04T05:36:50;3.45;;;0.40;;
75628;SDS011;64213;46.452;16.994;2023-02-04T05:39:53;1.62;;;0.20;;
75628;SDS011;64213;46.452;16.994;2023-02-04T05:42:55;2.60;;;0.23;;
75628;SDS011;64213;46.452;16.994;2023-02-04T05:45:57;0.70;;;0.10;;
75628;SDS011;64213;46.452;16.994;2023-02-04T05:48:59;1.40;;;0.20;;
75628;SDS011;64213;46.452;16.994;2023-02-04T05:52:02;1.15;;;0.10;;
75628;SDS011;64213;46.452;16.994;2023-02-04T05:55:05;1.77;;;0.28;;
75628;SDS011;64213;46.452;16.994;2023-02-04T05:58:08;1.63;;;0.20;;
75628;SDS011;64213;46.452;16.994;2023-02-04T06:01:10;1.10;;;0.10;;
75628;SDS011;64213;46.452;16.994;2023-02-04T06:04:12;1.55;;;0.10;;
75628;SDS011;64213;46.452;16.994;2023-02-04T06:07:17;0.80;;;0.10;;
75628;SDS011;64213;46.452;16.994;2023-02-04T06:10:19;0.80;;;0.20;;
75628;SDS011;64213;46.452;16.994;2023-02-04T06:13:21;0.67;;;0.10;;
75628;SDS011;64213;46.452;16.994;2023-02-04T06:16:23;1.43;;;0.20;;
75628;SDS011;64213;46.452;16.994;2023-02-04T06:19:26;2.62;;;0.22;;
75628;SDS011;64213;46.452;16.994;2023-02-04T06:22:28;2.47;;;0.40;;
75628;SDS011;64213;46.452;16.994;2023-02-04T06:25:31;1.83;;;0.20;;
75628;SDS011;64213;46.452;16.994;2023-02-04T06:28:33;0.97;;;0.20;;
75628;SDS011;64213;46.452;16.994;2023-02-04T06:31:35;0.90;;;0.20;;
75628;SDS011;64213;46.452;16.994;2023-02-04T06:34:39;1.60;;;0.20;;
75628;SDS011;64213;46.452;16.994;2023-02-04T06:37:43;1.42;;;0.20;;
75628;SDS011;64213;46.452;16.994;2023-02-04T06:40:45;1.80;;;0.20;;
75628;SDS011;64213;46.452;16.994;2023-02-04T06:43:54;0.97;;;0.10;;
75628;SDS011;64213;46.452;16.994;2023-02-04T06:46:56;2.70;;;0.30;;
75628;SDS011;64213;46.452;16.994;2023-02-04T06:49:58;1.17;;;0.20;;
75628;SDS011;64213;46.452;16.994;2023-02-04T06:53:06;1.95;;;0.10;;
75628;SDS011;64213;46.452;16.994;2023-02-04T06:56:10;1.42;;;0.20;;
75628;SDS011;64213;46.452;16.994;2023-02-04T06:59:12;1.80;;;0.30;;
75628;SDS011;64213;46.452;16.994;2023-02-04T07:02:14;2.03;;;0.20;;
75628;SDS011;64213;46.452;16.994;2023-02-04T07:05:17;3.80;;;0.65;;
75628;SDS011;64213;46.452;16.994;2023-02-04T07:08:19;1.73;;;0.22;;
75628;SDS011;64213;46.452;16.994;2023-02-04T07:11:25;2.92;;;0.30;;
75628;SDS011;64213;46.452;16.994;2023-02-04T07:14:27;2.10;;;0.60;;
75628;SDS011;64213;46.452;16.994;2023-02-04T07:17:29;2.43;;;0.30;;
75628;SDS011;64213;46.452;16.994;2023-02-04T07:20:31;3.03;;;0.50;;
75628;SDS011;64213;46.452;16.994;2023-02-04T07:23:34;2.17;;;0.40;;
75628;SDS011;64213;46.452;16.994;2023-02-04T07:26:36;2.87;;;0.40;;
75628;SDS011;64213;46.452;16.994;2023-02-04T07:29:38;2.07;;;0.30;;
75628;SDS011;64213;46.452;16.994;2023-02-04T07:32:40;2.47;;;0.30;;
75628;SDS011;64213;46.452;16.994;2023-02-04T07:35:43;4.07;;;0.57;;
75628;SDS011;64213;46.452;16.994;2023-02-04T07:38:45;2.40;;;0.47;;
75628;SDS011;64213;46.452;16.994;2023-02-04T07:41:47;4.50;;;0.60;;
75628;SDS011;64213;46.452;16.994;2023-02-04T07:44:49;3.37;;;0.50;;
75628;SDS011;64213;46.452;16.994;2023-02-04T07:47:51;3.83;;;0.50;;
75628;SDS011;64213;46.452;16.994;2023-02-04T07:50:54;2.67;;;0.40;;
75628;SDS011;64213;46.452;16.994;2023-02-04T07:53:56;3.08;;;0.50;;
75628;SDS011;64213;46.452;16.994;2023-02-04T07:56:58;5.30;;;0.40;;
75628;SDS011;64213;46.452;16.994;2023-02-04T08:00:00;4.27;;;0.60;;
75628;SDS011;64213;46.452;16.994;2023-02-04T08:03:03;3.10;;;0.40;;
75628;SDS011;64213;46.452;16.994;2023-02-04T08:06:05;2.95;;;0.40;;
75628;SDS011;64213;46.452;16.994;2023-02-04T08:09:08;2.20;;;0.40;;
75628;SDS011;64213;46.452;16.994;2023-02-04T08:12:10;3.33;;;0.52;;
75628;SDS011;64213;46.452;16.994;2023-02-04T08:15:12;2.67;;;0.50;;
75628;SDS011;64213;46.452;16.994;2023-02-04T08:18:15;3.60;;;0.60;;
75628;SDS011;64213;46.452;16.994;2023-02-04T08:21:17;2.47;;;0.30;;
75628;SDS011;64213;46.452;16.994;2023-02-04T08:24:20;2.25;;;0.40;;
75628;SDS011;64213;46.452;16.994;2023-02-04T08:27:22;2.08;;;0.30;;
75628;SDS011;64213;46.452;16.994;2023-02-04T08:30:24;3.23;;;0.50;;
75628;SDS011;64213;46.452;16.994;2023-02-04T08:33:27;4.27;;;0.63;;
75628;SDS011;64213;46.452;16.994;2023-02-04T08:36:29;4.18;;;0.77;;
75628;SDS011;64213;46.452;16.994;2023-02-04T08:39:31;3.30;;;0.52;;
75628;SDS011;64213;46.452;16.994;2023-02-04T08:42:33;4.00;;;0.70;;
75628;SDS011;64213;46.452;16.994;2023-02-04T08:45:36;3.70;;;0.60;;
75628;SDS011;64213;46.452;16.994;2023-02-04T08:48:40;3.90;;;0.70;;
75628;SDS011;64213;46.452;16.994;2023-02-04T08:51:42;5.07;;;0.62;;
75628;SDS011;64213;46.452;16.994;2023-02-04T08:54:44;2.80;;;0.43;;
75628;SDS011;64213;46.452;16.994;2023-02-04T08:57:46;3.47;;;0.75;;
75628;SDS011;64213;46.452;16.994;2023-02-04T09:00:48;3.90;;;0.83;;
75628;SDS011;64213;46.452;16.994;2023-02-04T09:03:51;6.00;;;1.13;;
75628;SDS011;64213;46.452;16.994;2023-02-04T09:06:53;6.30;;;1.45;;
75628;SDS011;64213;46.452;16.994;2023-02-04T09:09:57;4.45;;;0.93;;
75628;SDS011;64213;46.452;16.994;2023-02-04T09:12:59;6.05;;;1.17;;
75628;SDS011;64213;46.452;16.994;2023-02-04T09:16:02;4.10;;;0.83;;
75628;SDS011;64213;46.452;16.994;2023-02-04T09:19:04;4.37;;;0.90;;
75628;SDS011;64213;46.452;16.994;2023-02-04T09:22:10;5.03;;;1.10;;
75628;SDS011;64213;46.452;16.994;2023-02-04T09:25:14;3.67;;;0.65;;
75628;SDS011;64213;46.452;16.994;2023-02-04T09:28:16;4.47;;;0.80;;
75628;SDS011;64213;46.452;16.994;2023-02-04T09:31:19;5.70;;;0.90;;
75628;SDS011;64213;46.452;16.994;2023-02-04T09:34:21;3.43;;;0.70;;
75628;SDS011;64213;46.452;16.994;2023-02-04T09:37:23;5.60;;;1.02;;
75628;SDS011;64213;46.452;16.994;2023-02-04T09:40:29;5.20;;;1.10;;
75628;SDS011;64213;46.452;16.994;2023-02-04T09:43:33;4.62;;;0.80;;
75628;SDS011;64213;46.452;16.994;2023-02-04T09:46:41;3.37;;;0.63;;
75628;SDS011;64213;46.452;16.994;2023-02-04T09:49:49;3.53;;;0.60;;
75628;SDS011;64213;46.452;16.994;2023-02-04T09:52:52;3.15;;;0.60;;
75628;SDS011;64213;46.452;16.994;2023-02-04T09:55:56;5.18;;;0.73;;
75628;SDS011;64213;46.452;16.994;2023-02-04T09:58:59;3.22;;;0.65;;
75628;SDS011;64213;46.452;16.994;2023-02-04T10:02:01;4.00;;;0.60;;
75628;SDS011;64213;46.452;16.994;2023-02-04T10:05:12;4.00;;;0.50;;
75628;SDS011;64213;46.452;16.994;2023-02-04T10:08:17;4.57;;;0.60;;
75628;SDS011;64213;46.452;16.994;2023-02-04T10:11:23;3.75;;;0.60;;
75628;SDS011;64213;46.452;16.994;2023-02-04T10:14:28;3.12;;;0.50;;
75628;SDS011;64213;46.452;16.994;2023-02-04T10:17:30;3.13;;;0.40;;
75628;SDS011;64213;46.452;16.994;2023-02-04T10:20:35;2.03;;;0.23;;
75628;SDS011;64213;46.452;16.994;2023-02-04T10:23:38;2.35;;;0.30;;
75628;SDS011;64213;46.452;16.994;2023-02-04T10:26:41;2.10;;;0.40;;
75628;SDS011;64213;46.452;16.994;2023-02-04T10:30:05;3.17;;;0.40;;
75628;SDS011;64213;46.452;16.994;2023-02-04T10:33:20;3.50;;;0.70;;
75628;SDS011;64213;46.452;16.994;2023-02-04T10:36:25;3.83;;;0.50;;
75628;SDS011;64213;46.452;16.994;2023-02-04T10:39:28;3.83;;;0.82;;
75628;SDS011;64213;46.452;16.994;2023-02-04T10:42:31;3.50;;;0.73;;
75628;SDS011;64213;46.452;16.994;2023-02-04T10:45:33;3.53;;;0.60;;
75628;SDS011;64213;46.452;16.994;2023-02-04T10:48:39;3.27;;;0.57;;
75628;SDS011;64213;46.452;16.994;2023-02-04T10:51:44;3.13;;;0.43;;
75628;SDS011;64213;46.452;16.994;2023-02-04T10:54:47;3.20;;;0.40;;
75628;SDS011;64213;46.452;16.994;2023-02-04T10:57:50;3.05;;;0.60;;
75628;SDS011;64213;46.452;16.994;2023-02-04T11:00:53;2.85;;;0.50;;
75628;SDS011;64213;46.452;16.994;2023-02-04T11:03:56;2.97;;;0.53;;
75628;SDS011;64213;46.452;16.994;2023-02-04T11:06:58;1.63;;;0.30;;
75628;SDS011;64213;46.452;16.994;2023-02-04T11:10:01;2.92;;;0.57;;
75628;SDS011;64213;46.452;16.994;2023-02-04T11:13:04;3.62;;;0.70;;
75628;SDS011;64213;46.452;16.994;2023-02-04T11:16:11;3.87;;;0.32;;
75628;SDS011;64213;46.452;16.994;2023-02-04T11:19:30;1.97;;;0.40;;
75628;SDS011;64213;46.452;16.994;2023-02-04T11:22:41;3.10;;;0.60;;
75628;SDS011;64213;46.452;16.994;2023-02-04T11:25:45;3.80;;;0.85;;
75628;SDS011;64213;46.452;16.994;2023-02-04T11:38:26;2.77;;;0.53;;
75628;SDS011;64213;46.452;16.994;2023-02-04T11:41:31;2.60;;;0.50;;
75628;SDS011;64213;46.452;16.994;2023-02-04T11:44:34;4.53;;;0.82;;
75628;SDS011;64213;46.452;16.994;2023-02-04T11:47:36;2.62;;;0.50;;
75628;SDS011;64213;46.452;16.994;2023-02-04T11:50:39;3.00;;;0.70;;
75628;SDS011;64213;46.452;16.994;2023-02-04T11:53:49;2.77;;;0.53;;
75628;SDS011;64213;46.452;16.994;2023-02-04T11:56:52;3.12;;;0.60;;
75628;SDS011;64213;46.452;16.994;2023-02-04T12:00:00;4.18;;;0.80;;
75628;SDS011;64213;46.452;16.994;2023-02-04T12:03:21;4.30;;;0.60;;
75628;SDS011;64213;46.452;16.994;2023-02-04T12:06:36;4.83;;;0.60;;
75628;SDS011;64213;46.452;16.994;2023-02-04T12:09:45;7.40;;;0.57;;
75628;SDS011;64213;46.452;16.994;2023-02-04T12:12:53;1.65;;;0.30;;
75628;SDS011;64213;46.452;16.994;2023-02-04T12:15:59;2.58;;;0.40;;
75628;SDS011;64213;46.452;16.994;2023-02-04T12:19:03;3.30;;;0.50;;
75628;SDS011;64213;46.452;16.994;2023-02-04T12:22:06;2.30;;;0.50;;
75628;SDS011;64213;46.452;16.994;2023-02-04T12:25:08;2.93;;;0.50;;
75628;SDS011;64213;46.452;16.994;2023-02-04T12:28:11;3.40;;;0.70;;
75628;SDS011;64213;46.452;16.994;2023-02-04T12:31:13;4.32;;;0.73;;
75628;SDS011;64213;46.452;16.994;2023-02-04T12:34:15;3.70;;;0.50;;
75628;SDS011;64213;46.452;16.994;2023-02-04T12:37:18;3.43;;;0.60;;
75628;SDS011;64213;46.452;16.994;2023-02-04T12:40:20;3.90;;;0.77;;
75628;SDS011;64213;46.452;16.994;2023-02-04T12:43:23;3.87;;;0.57;;
75628;SDS011;64213;46.452;16.994;2023-02-04T12:46:28;2.92;;;0.60;;
75628;SDS011;64213;46.452;16.994;2023-02-04T12:49:31;2.58;;;0.60;;
75628;SDS011;64213;46.452;16.994;2023-02-04T12:52:33;3.73;;;0.60;;
75628;SDS011;64213;46.452;16.994;2023-02-04T12:55:37;3.90;;;0.70;;
75628;SDS011;64213;46.452;16.994;2023-02-04T12:58:39;6.15;;;1.08;;
75628;SDS011;64213;46.452;16.994;2023-02-04T13:01:42;4.00;;;0.70;;
75628;SDS011;64213;46.452;16.994;2023-02-04T13:04:44;3.12;;;0.70;;
75628;SDS011;64213;46.452;16.994;2023-02-04T13:07:46;4.30;;;0.90;;
75628;SDS011;64213;46.452;16.994;2023-02-04T13:10:48;2.97;;;0.60;;
75628;SDS011;64213;46.452;16.994;2023-02-04T13:13:53;6.28;;;1.00;;
75628;SDS011;64213;46.452;16.994;2023-02-04T13:16:55;5.80;;;0.80;;
75628;SDS011;64213;46.452;16.994;2023-02-04T13:19:57;3.90;;;0.60;;
75628;SDS011;64213;46.452;16.994;2023-02-04T13:23:01;3.70;;;0.93;;
75628;SDS011;64213;46.452;16.994;2023-02-04T13:26:03;3.90;;;0.80;;
75628;SDS011;64213;46.452;16.994;2023-02-04T13:29:06;3.75;;;0.65;;
75628;SDS011;64213;46.452;16.994;2023-02-04T13:32:08;6.00;;;1.08;;
75628;SDS011;64213;46.452;16.994;2023-02-04T13:35:11;2.95;;;0.50;;
75628;SDS011;64213;46.452;16.994;2023-02-04T13:38:13;3.60;;;0.70;;
75628;SDS011;64213;46.452;16.994;2023-02-04T13:41:15;4.03;;;0.70;;
75628;SDS011;64213;46.452;16.994;2023-02-04T13:44:18;5.20;;;0.95;;
75628;SDS011;64213;46.452;16.994;2023-02-04T13:47:20;4.72;;;0.95;;
75628;SDS011;64213;46.452;16.994;2023-02-04T13:50:23;5.47;;;0.80;;
75628;SDS011;64213;46.452;16.994;2023-02-04T13:53:25;5.30;;;1.10;;
75628;SDS011;64213;46.452;16.994;2023-02-04T13:56:31;3.97;;;0.70;;
75628;SDS011;64213;46.452;16.994;2023-02-04T13:59:34;4.28;;;0.68;;
75628;SDS011;64213;46.452;16.994;2023-02-04T14:02:36;2.83;;;0.50;;
75628;SDS011;64213;46.452;16.994;2023-02-04T14:05:39;4.25;;;0.68;;
75628;SDS011;64213;46.452;16.994;2023-02-04T14:08:42;4.50;;;0.80;;
75628;SDS011;64213;46.452;16.994;2023-02-04T14:11:46;4.27;;;0.80;;
75628;SDS011;64213;46.452;16.994;2023-02-04T14:14:48;5.65;;;0.80;;
75628;SDS011;64213;46.452;16.994;2023-02-04T14:17:50;3.08;;;0.40;;
75628;SDS011;64213;46.452;16.994;2023-02-04T14:20:52;4.10;;;0.60;;
75628;SDS011;64213;46.452;16.994;2023-02-04T14:23:56;3.17;;;0.63;;
75628;SDS011;64213;46.452;16.994;2023-02-04T14:26:58;3.33;;;0.40;;
75628;SDS011;64213;46.452;16.994;2023-02-04T14:30:02;3.20;;;0.50;;
75628;SDS011;64213;46.452;16.994;2023-02-04T14:33:05;2.70;;;0.60;;
75628;SDS011;64213;46.452;16.994;2023-02-04T14:36:09;4.12;;;0.60;;
75628;SDS011;64213;46.452;16.994;2023-02-04T14:39:12;3.30;;;0.60;;
75628;SDS011;64213;46.452;16.994;2023-02-04T14:42:14;4.40;;;0.70;;
75628;SDS011;64213;46.452;16.994;2023-02-04T14:45:16;3.83;;;0.70;;
75628;SDS011;64213;46.452;16.994;2023-02-04T14:48:19;4.07;;;0.55;;
75628;SDS011;64213;46.452;16.994;2023-02-04T14:51:21;4.10;;;0.70;;
75628;SDS011;64213;46.452;16.994;2023-02-04T14:54:24;3.53;;;0.53;;
75628;SDS011;64213;46.452;16.994;2023-02-04T14:57:26;4.03;;;0.80;;
75628;SDS011;64213;46.452;16.994;2023-02-04T15:00:29;5.07;;;0.70;;
75628;SDS011;64213;46.452;16.994;2023-02-04T15:03:32;3.87;;;0.62;;
75628;SDS011;64213;46.452;16.994;2023-02-04T15:06:34;4.18;;;0.62;;
75628;SDS011;64213;46.452;16.994;2023-02-04T15:09:36;5.27;;;0.83;;
75628;SDS011;64213;46.452;16.994;2023-02-04T15:12:39;11.83;;;1.37;;
75628;SDS011;64213;46.452;16.994;2023-02-04T15:15:41;9.93;;;1.05;;
75628;SDS011;64213;46.452;16.994;2023-02-04T15:18:43;7.12;;;0.80;;
75628;SDS011;64213;46.452;16.994;2023-02-04T15:21:45;5.15;;;1.05;;
75628;SDS011;64213;46.452;16.994;2023-02-04T15:24:47;4.60;;;0.87;;
75628;SDS011;64213;46.452;16.994;2023-02-04T15:27:50;3.80;;;0.70;;
75628;SDS011;64213;46.452;16.994;2023-02-04T15:30:52;3.78;;;0.45;;
75628;SDS011;64213;46.452;16.994;2023-02-04T15:33:55;4.35;;;0.65;;
75628;SDS011;64213;46.452;16.994;2023-02-04T15:36:57;3.35;;;0.68;;
75628;SDS011;64213;46.452;16.994;2023-02-04T15:40:00;9.70;;;1.17;;
75628;SDS011;64213;46.452;16.994;2023-02-04T15:43:04;6.23;;;1.00;;
75628;SDS011;64213;46.452;16.994;2023-02-04T15:46:06;5.10;;;1.00;;
75628;SDS011;64213;46.452;16.994;2023-02-04T15:49:09;4.68;;;0.70;;
75628;SDS011;64213;46.452;16.994;2023-02-04T15:52:11;4.65;;;0.77;;
75628;SDS011;64213;46.452;16.994;2023-02-04T15:55:25;3.93;;;0.60;;
75628;SDS011;64213;46.452;16.994;2023-02-04T15:58:28;4.60;;;0.80;;
75628;SDS011;64213;46.452;16.994;2023-02-04T16:01:31;5.90;;;1.17;;
75628;SDS011;64213;46.452;16.994;2023-02-04T16:04:33;3.30;;;0.47;;
75628;SDS011;64213;46.452;16.994;2023-02-04T16:07:36;3.58;;;0.70;;
75628;SDS011;64213;46.452;16.994;2023-02-04T16:10:38;4.80;;;0.90;;
75628;SDS011;64213;46.452;16.994;2023-02-04T16:13:41;3.00;;;0.80;;
75628;SDS011;64213;46.452;16.994;2023-02-04T16:16:43;4.87;;;0.80;;
75628;SDS011;64213;46.452;16.994;2023-02-04T16:19:45;4.47;;;0.80;;
75628;SDS011;64213;46.452;16.994;2023-02-04T16:22:48;3.95;;;0.70;;
75628;SDS011;64213;46.452;16.994;2023-02-04T16:25:51;2.43;;;0.40;;
75628;SDS011;64213;46.452;16.994;2023-02-04T16:28:54;4.43;;;0.57;;
75628;SDS011;64213;46.452;16.994;2023-02-04T16:31:56;5.12;;;0.70;;
75628;SDS011;64213;46.452;16.994;2023-02-04T16:34:59;3.22;;;0.45;;
75628;SDS011;64213;46.452;16.994;2023-02-04T16:38:03;3.00;;;0.45;;
75628;SDS011;64213;46.452;16.994;2023-02-04T16:41:06;3.90;;;0.57;;
75628;SDS011;64213;46.452;16.994;2023-02-04T16:44:09;4.00;;;0.63;;
75628;SDS011;64213;46.452;16.994;2023-02-04T16:47:12;3.05;;;0.50;;
75628;SDS011;64213;46.452;16.994;2023-02-04T16:50:15;2.15;;;0.30;;
75628;SDS011;64213;46.452;16.994;2023-02-04T16:53:18;3.08;;;0.50;;
75628;SDS011;64213;46.452;16.994;2023-02-04T16:56:20;2.00;;;0.30;;
75628;SDS011;64213;46.452;16.994;2023-02-04T16:59:23;2.80;;;0.47;;
75628;SDS011;64213;46.452;16.994;2023-02-04T17:02:25;5.18;;;1.70;;
75628;SDS011;64213;46.452;16.994;2023-02-04T17:05:28;2.87;;;0.50;;
75628;SDS011;64213;46.452;16.994;2023-02-04T17:08:30;2.20;;;0.40;;
75628;SDS011;64213;46.452;16.994;2023-02-04T17:11:39;3.63;;;0.60;;
75628;SDS011;64213;46.452;16.994;2023-02-04T17:14:42;2.83;;;0.57;;
75628;SDS011;64213;46.452;16.994;2023-02-04T17:17:50;4.95;;;0.65;;
75628;SDS011;64213;46.452;16.994;2023-02-04T17:20:52;1.95;;;0.22;;
75628;SDS011;64213;46.452;16.994;2023-02-04T17:24:00;8.38;;;3.72;;
75628;SDS011;64213;46.452;16.994;2023-02-04T17:27:09;1.63;;;0.30;;
75628;SDS011;64213;46.452;16.994;2023-02-04T17:30:15;3.60;;;0.60;;
75628;SDS011;64213;46.452;16.994;2023-02-04T17:36:45;2.87;;;0.50;;
75628;SDS011;64213;46.452;16.994;2023-02-04T17:39:49;3.00;;;0.60;;
75628;SDS011;64213;46.452;16.994;2023-02-04T17:42:52;1.87;;;0.30;;
75628;SDS011;64213;46.452;16.994;2023-02-04T17:53:11;1.90;;;0.40;;
75628;SDS011;64213;46.452;16.994;2023-02-04T17:59:54;2.67;;;0.63;;
75628;SDS011;64213;46.452;16.994;2023-02-04T18:02:58;4.97;;;0.97;;
75628;SDS011;64213;46.452;16.994;2023-02-04T18:06:11;4.72;;;0.70;;
75628;SDS011;64213;46.452;16.994;2023-02-04T18:09:28;6.03;;;0.70;;
75628;SDS011;64213;46.452;16.994;2023-02-04T18:24:01;3.87;;;0.73;;
75628;SDS011;64213;46.452;16.994;2023-02-04T19:14:52;3.70;;;0.70;;
75628;SDS011;64213;46.452;16.994;2023-02-04T19:17:55;4.47;;;0.80;;
75628;SDS011;64213;46.452;16.994;2023-02-04T19:21:13;1.50;;;0.30;;
75628;SDS011;64213;46.452;16.994;2023-02-04T19:24:25;4.07;;;0.70;;
75628;SDS011;64213;46.452;16.994;2023-02-04T19:27:31;4.47;;;0.93;;
75628;SDS011;64213;46.452;16.994;2023-02-04T19:30:39;4.43;;;0.73;;
75628;SDS011;64213;46.452;16.994;2023-02-04T19:33:46;2.42;;;0.43;;